sensor_id;sensor_type;location;lat;lon;timestamp;P1;durP1;ratioP1;P2;durP2;ratioP2
25980;SDS011;13772;52.996;9.124;2023-06-26T06:12:43;9.25;;;8.07;;
25980;SDS011;13772;52.996;9.124;2023-06-26T06:15:08;10.90;;;8.82;;
25980;SDS011;13772;52.996;9.124;2023-06-26T06:17:33;9.35;;;8.35;;
25980;SDS011;13772;52.996;9.124;2023-06-26T06:19:58;10.70;;;8.02;;
25980;SDS011;13772;52.996;9.124;2023-06-26T06:22:24;8.82;;;7.40;;
25980;SDS011;13772;52.996;9.124;2023-06-26T06:24:49;10.75;;;7.85;;
25980;SDS011;13772;52.996;9.124;2023-06-26T06:27:15;10.07;;;7.88;;
25980;SDS011;13772;52.996;9.124;2023-06-26T06:29:41;8.48;;;7.57;;
25980;SDS011;13772;52.996;9.124;2023-06-26T06:32:06;11.73;;;7.47;;
25980;SDS011;13772;52.996;9.124;2023-06-26T06:34:31;9.00;;;7.72;;
25980;SDS011;13772;52.996;9.124;2023-06-26T06:36:56;9.20;;;6.57;;
25980;SDS011;13772;52.996;9.124;2023-06-26T06:39:21;8.80;;;7.15;;
25980;SDS011;13772;52.996;9.124;2023-06-26T06:41:47;7.20;;;6.37;;
25980;SDS011;13772;52.996;9.124;2023-06-26T06:44:12;8.55;;;5.97;;
25980;SDS011;13772;52.996;9.124;2023-06-26T06:46:37;10.63;;;6.65;;
25980;SDS011;13772;52.996;9.124;2023-06-26T06:49:02;10.00;;;6.95;;
25980;SDS011;13772;52.996;9.124;2023-06-26T06:51:29;7.85;;;6.25;;
25980;SDS011;13772;52.996;9.124;2023-06-26T06:53:54;9.57;;;6.82;;
25980;SDS011;13772;52.996;9.124;2023-06-26T06:56:19;11.82;;;6.40;;
25980;SDS011;13772;52.996;9.124;2023-06-26T06:58:44;10.50;;;6.97;;
25980;SDS011;13772;52.996;9.124;2023-06-26T07:01:12;10.70;;;7.28;;
25980;SDS011;13772;52.996;9.124;2023-06-26T07:03:37;10.95;;;6.90;;
25980;SDS011;13772;52.996;9.124;2023-06-26T07:06:02;10.65;;;6.60;;
25980;SDS011;13772;52.996;9.124;2023-06-26T07:08:28;10.00;;;6.68;;
25980;SDS011;13772;52.996;9.124;2023-06-26T07:10:54;9.95;;;6.50;;
25980;SDS011;13772;52.996;9.124;2023-06-26T07:13:19;10.80;;;7.20;;
25980;SDS011;13772;52.996;9.124;2023-06-26T07:15:45;8.07;;;6.28;;
25980;SDS011;13772;52.996;9.124;2023-06-26T07:18:10;10.88;;;7.22;;
25980;SDS011;13772;52.996;9.124;2023-06-26T07:20:35;9.73;;;6.47;;
25980;SDS011;13772;52.996;9.124;2023-06-26T07:23:00;10.07;;;7.32;;
25980;SDS011;13772;52.996;9.124;2023-06-26T07:25:25;9.30;;;7.25;;
25980;SDS011;13772;52.996;9.124;2023-06-26T07:27:51;9.75;;;6.88;;
25980;SDS011;13772;52.996;9.124;2023-06-26T07:30:16;10.40;;;7.10;;
25980;SDS011;13772;52.996;9.124;2023-06-26T07:32:41;11.35;;;7.30;;
25980;SDS011;13772;52.996;9.124;2023-06-26T07:35:07;10.65;;;7.03;;
25980;SDS011;13772;52.996;9.124;2023-06-26T07:37:32;10.60;;;7.07;;
25980;SDS011;13772;52.996;9.124;2023-06-26T07:39:58;10.57;;;7.45;;
25980;SDS011;13772;52.996;9.124;2023-06-26T07:42:23;9.15;;;6.95;;
25980;SDS011;13772;52.996;9.124;2023-06-26T07:44:48;9.30;;;7.65;;
25980;SDS011;13772;52.996;9.124;2023-06-26T07:47:13;10.23;;;8.35;;
25980;SDS011;13772;52.996;9.124;2023-06-26T07:49:39;12.45;;;7.80;;
25980;SDS011;13772;52.996;9.124;2023-06-26T07:52:04;11.13;;;8.80;;
25980;SDS011;13772;52.996;9.124;2023-06-26T07:54:30;17.77;;;9.02;;
25980;SDS011;13772;52.996;9.124;2023-06-26T07:56:59;11.95;;;9.48;;
25980;SDS011;13772;52.996;9.124;2023-06-26T07:59:25;11.38;;;9.65;;
25980;SDS011;13772;52.996;9.124;2023-06-26T08:01:51;15.30;;;9.88;;
25980;SDS011;13772;52.996;9.124;2023-06-26T08:04:18;13.73;;;9.13;;
25980;SDS011;13772;52.996;9.124;2023-06-26T08:06:43;13.20;;;8.60;;
25980;SDS011;13772;52.996;9.124;2023-06-26T08:09:09;14.10;;;8.82;;
25980;SDS011;13772;52.996;9.124;2023-06-26T08:11:34;11.20;;;8.40;;
25980;SDS011;13772;52.996;9.124;2023-06-26T08:13:59;12.15;;;8.48;;
25980;SDS011;13772;52.996;9.124;2023-06-26T08:16:25;11.87;;;8.67;;
25980;SDS011;13772;52.996;9.124;2023-06-26T08:18:50;12.32;;;9.55;;
25980;SDS011;13772;52.996;9.124;2023-06-26T08:21:15;12.63;;;8.40;;
25980;SDS011;13772;52.996;9.124;2023-06-26T08:23:41;11.55;;;7.82;;
25980;SDS011;13772;52.996;9.124;2023-06-26T08:26:06;10.37;;;7.50;;
25980;SDS011;13772;52.996;9.124;2023-06-26T08:28:31;9.18;;;7.63;;
25980;SDS011;13772;52.996;9.124;2023-06-26T08:30:56;13.80;;;7.63;;
25980;SDS011;13772;52.996;9.124;2023-06-26T08:33:21;13.07;;;7.97;;
25980;SDS011;13772;52.996;9.124;2023-06-26T08:35:46;11.40;;;8.57;;
25980;SDS011;13772;52.996;9.124;2023-06-26T08:38:12;13.27;;;8.30;;
25980;SDS011;13772;52.996;9.124;2023-06-26T08:40:37;11.82;;;10.07;;
25980;SDS011;13772;52.996;9.124;2023-06-26T08:43:03;16.85;;;10.00;;
25980;SDS011;13772;52.996;9.124;2023-06-26T08:45:29;13.35;;;9.70;;
25980;SDS011;13772;52.996;9.124;2023-06-26T08:47:54;13.93;;;10.80;;
25980;SDS011;13772;52.996;9.124;2023-06-26T08:50:20;18.38;;;10.75;;
25980;SDS011;13772;52.996;9.124;2023-06-26T08:55:13;14.80;;;10.33;;
25980;SDS011;13772;52.996;9.124;2023-06-26T08:57:40;18.98;;;9.73;;
25980;SDS011;13772;52.996;9.124;2023-06-26T09:00:05;13.25;;;8.75;;
25980;SDS011;13772;52.996;9.124;2023-06-26T09:02:33;13.90;;;8.67;;
25980;SDS011;13772;52.996;9.124;2023-06-26T09:04:59;11.77;;;8.43;;
25980;SDS011;13772;52.996;9.124;2023-06-26T09:07:24;11.93;;;7.95;;
25980;SDS011;13772;52.996;9.124;2023-06-26T09:09:49;10.00;;;6.93;;
25980;SDS011;13772;52.996;9.124;2023-06-26T09:12:14;31.40;;;9.93;;
25980;SDS011;13772;52.996;9.124;2023-06-26T09:14:40;16.27;;;7.20;;
25980;SDS011;13772;52.996;9.124;2023-06-26T09:17:06;20.42;;;8.45;;
25980;SDS011;13772;52.996;9.124;2023-06-26T09:19:31;18.73;;;7.70;;
25980;SDS011;13772;52.996;9.124;2023-06-26T09:21:56;13.32;;;6.38;;
25980;SDS011;13772;52.996;9.124;2023-06-26T09:24:21;13.95;;;6.65;;
25980;SDS011;13772;52.996;9.124;2023-06-26T09:26:47;19.50;;;7.40;;
25980;SDS011;13772;52.996;9.124;2023-06-26T09:29:13;15.90;;;7.55;;
25980;SDS011;13772;52.996;9.124;2023-06-26T09:31:39;12.93;;;7.15;;
25980;SDS011;13772;52.996;9.124;2023-06-26T09:34:04;14.50;;;9.20;;
25980;SDS011;13772;52.996;9.124;2023-06-26T09:36:30;15.55;;;9.75;;
25980;SDS011;13772;52.996;9.124;2023-06-26T09:38:58;16.50;;;11.02;;
25980;SDS011;13772;52.996;9.124;2023-06-26T09:41:23;17.67;;;12.35;;
25980;SDS011;13772;52.996;9.124;2023-06-26T09:43:49;22.10;;;14.43;;
25980;SDS011;13772;52.996;9.124;2023-06-26T09:46:24;16.85;;;13.52;;
25980;SDS011;13772;52.996;9.124;2023-06-26T09:48:50;20.83;;;13.48;;
25980;SDS011;13772;52.996;9.124;2023-06-26T09:51:22;15.52;;;13.02;;
25980;SDS011;13772;52.996;9.124;2023-06-26T09:53:47;19.25;;;13.40;;
25980;SDS011;13772;52.996;9.124;2023-06-26T09:56:16;18.38;;;12.25;;
25980;SDS011;13772;52.996;9.124;2023-06-26T09:58:42;16.40;;;12.60;;
25980;SDS011;13772;52.996;9.124;2023-06-26T10:01:08;15.43;;;12.18;;
25980;SDS011;13772;52.996;9.124;2023-06-26T10:03:34;17.92;;;12.10;;
25980;SDS011;13772;52.996;9.124;2023-06-26T10:06:00;16.50;;;11.90;;
25980;SDS011;13772;52.996;9.124;2023-06-26T10:08:26;16.75;;;10.90;;
25980;SDS011;13772;52.996;9.124;2023-06-26T10:10:51;17.50;;;10.68;;
25980;SDS011;13772;52.996;9.124;2023-06-26T10:13:19;14.65;;;8.95;;
25980;SDS011;13772;52.996;9.124;2023-06-26T10:15:46;9.35;;;6.22;;
25980;SDS011;13772;52.996;9.124;2023-06-26T10:18:13;10.82;;;6.90;;
25980;SDS011;13772;52.996;9.124;2023-06-26T10:20:42;14.82;;;6.25;;
25980;SDS011;13772;52.996;9.124;2023-06-26T10:23:08;10.90;;;5.75;;
25980;SDS011;13772;52.996;9.124;2023-06-26T10:25:34;11.00;;;5.90;;
25980;SDS011;13772;52.996;9.124;2023-06-26T10:28:02;13.35;;;6.45;;
25980;SDS011;13772;52.996;9.124;2023-06-26T10:30:29;8.48;;;4.97;;
25980;SDS011;13772;52.996;9.124;2023-06-26T10:32:56;9.05;;;4.20;;
25980;SDS011;13772;52.996;9.124;2023-06-26T10:35:22;8.13;;;3.72;;
25980;SDS011;13772;52.996;9.124;2023-06-26T10:37:49;10.05;;;3.75;;
25980;SDS011;13772;52.996;9.124;2023-06-26T10:40:21;9.27;;;4.10;;
25980;SDS011;13772;52.996;9.124;2023-06-26T10:42:46;9.23;;;3.25;;
25980;SDS011;13772;52.996;9.124;2023-06-26T10:45:15;8.70;;;3.90;;
25980;SDS011;13772;52.996;9.124;2023-06-26T10:47:41;11.20;;;3.58;;
25980;SDS011;13772;52.996;9.124;2023-06-26T10:50:16;8.45;;;3.10;;
25980;SDS011;13772;52.996;9.124;2023-06-26T10:52:41;6.13;;;2.40;;
25980;SDS011;13772;52.996;9.124;2023-06-26T10:55:08;7.23;;;2.40;;
25980;SDS011;13772;52.996;9.124;2023-06-26T10:57:33;8.13;;;2.00;;
25980;SDS011;13772;52.996;9.124;2023-06-26T11:00:10;6.75;;;2.20;;
25980;SDS011;13772;52.996;9.124;2023-06-26T11:02:51;7.40;;;2.30;;
25980;SDS011;13772;52.996;9.124;2023-06-26T11:05:26;3.78;;;1.92;;
25980;SDS011;13772;52.996;9.124;2023-06-26T11:08:08;6.53;;;2.28;;
25980;SDS011;13772;52.996;9.124;2023-06-26T11:10:53;4.85;;;1.90;;
25980;SDS011;13772;52.996;9.124;2023-06-26T11:13:18;3.88;;;1.58;;
25980;SDS011;13772;52.996;9.124;2023-06-26T11:18:12;9.77;;;2.00;;
25980;SDS011;13772;52.996;9.124;2023-06-26T11:20:37;13.63;;;2.30;;
25980;SDS011;13772;52.996;9.124;2023-06-26T11:23:03;5.38;;;2.17;;
25980;SDS011;13772;52.996;9.124;2023-06-26T11:25:29;5.13;;;2.30;;
25980;SDS011;13772;52.996;9.124;2023-06-26T11:27:55;13.20;;;2.53;;
25980;SDS011;13772;52.996;9.124;2023-06-26T11:30:23;4.82;;;2.20;;
25980;SDS011;13772;52.996;9.124;2023-06-26T11:32:49;6.70;;;2.22;;
25980;SDS011;13772;52.996;9.124;2023-06-26T11:35:22;5.40;;;2.00;;
25980;SDS011;13772;52.996;9.124;2023-06-26T11:37:48;7.22;;;2.03;;
25980;SDS011;13772;52.996;9.124;2023-06-26T11:40:17;6.35;;;1.83;;
25980;SDS011;13772;52.996;9.124;2023-06-26T11:42:42;5.15;;;1.70;;
25980;SDS011;13772;52.996;9.124;2023-06-26T11:45:08;10.15;;;1.63;;
25980;SDS011;13772;52.996;9.124;2023-06-26T11:47:34;8.57;;;1.67;;
25980;SDS011;13772;52.996;9.124;2023-06-26T11:50:00;4.28;;;1.80;;
25980;SDS011;13772;52.996;9.124;2023-06-26T11:52:29;5.22;;;2.00;;
25980;SDS011;13772;52.996;9.124;2023-06-26T11:54:54;4.97;;;2.15;;
25980;SDS011;13772;52.996;9.124;2023-06-26T11:57:19;7.37;;;1.70;;
25980;SDS011;13772;52.996;9.124;2023-06-26T11:59:45;3.75;;;1.50;;
25980;SDS011;13772;52.996;9.124;2023-06-26T12:02:11;7.07;;;1.60;;
25980;SDS011;13772;52.996;9.124;2023-06-26T12:04:38;6.93;;;1.80;;
25980;SDS011;13772;52.996;9.124;2023-06-26T12:07:04;5.15;;;1.40;;
25980;SDS011;13772;52.996;9.124;2023-06-26T12:09:32;6.00;;;1.75;;
25980;SDS011;13772;52.996;9.124;2023-06-26T12:11:58;5.75;;;1.80;;
25980;SDS011;13772;52.996;9.124;2023-06-26T12:14:24;4.57;;;1.45;;
25980;SDS011;13772;52.996;9.124;2023-06-26T12:16:51;4.65;;;1.40;;
25980;SDS011;13772;52.996;9.124;2023-06-26T12:19:17;6.05;;;1.80;;
25980;SDS011;13772;52.996;9.124;2023-06-26T12:21:46;5.97;;;1.63;;
25980;SDS011;13772;52.996;9.124;2023-06-26T12:24:17;4.13;;;1.50;;
25980;SDS011;13772;52.996;9.124;2023-06-26T12:26:46;8.25;;;1.90;;
25980;SDS011;13772;52.996;9.124;2023-06-26T12:29:12;7.90;;;1.38;;
25980;SDS011;13772;52.996;9.124;2023-06-26T12:31:41;6.03;;;1.95;;
25980;SDS011;13772;52.996;9.124;2023-06-26T12:34:10;4.30;;;1.33;;
25980;SDS011;13772;52.996;9.124;2023-06-26T12:36:43;4.70;;;1.55;;
25980;SDS011;13772;52.996;9.124;2023-06-26T12:39:10;4.13;;;1.27;;
25980;SDS011;13772;52.996;9.124;2023-06-26T12:44:19;3.83;;;1.52;;
25980;SDS011;13772;52.996;9.124;2023-06-26T12:46:49;4.45;;;1.60;;
25980;SDS011;13772;52.996;9.124;2023-06-26T12:49:14;3.78;;;1.13;;
25980;SDS011;13772;52.996;9.124;2023-06-26T12:51:39;3.30;;;1.48;;
25980;SDS011;13772;52.996;9.124;2023-06-26T12:54:05;9.02;;;1.70;;
25980;SDS011;13772;52.996;9.124;2023-06-26T12:56:30;6.63;;;1.42;;
25980;SDS011;13772;52.996;9.124;2023-06-26T12:58:55;5.37;;;1.70;;
25980;SDS011;13772;52.996;9.124;2023-06-26T13:01:21;4.57;;;1.60;;
25980;SDS011;13772;52.996;9.124;2023-06-26T13:03:49;4.45;;;1.67;;
25980;SDS011;13772;52.996;9.124;2023-06-26T13:06:14;5.97;;;1.92;;
25980;SDS011;13772;52.996;9.124;2023-06-26T13:08:39;5.03;;;1.70;;
25980;SDS011;13772;52.996;9.124;2023-06-26T13:11:05;6.22;;;1.85;;
25980;SDS011;13772;52.996;9.124;2023-06-26T13:13:30;3.77;;;1.90;;
25980;SDS011;13772;52.996;9.124;2023-06-26T13:15:55;5.00;;;1.67;;
25980;SDS011;13772;52.996;9.124;2023-06-26T13:18:20;7.75;;;1.95;;
25980;SDS011;13772;52.996;9.124;2023-06-26T13:20:46;5.70;;;1.50;;
25980;SDS011;13772;52.996;9.124;2023-06-26T13:23:11;4.97;;;1.83;;
25980;SDS011;13772;52.996;9.124;2023-06-26T13:25:36;6.82;;;2.00;;
25980;SDS011;13772;52.996;9.124;2023-06-26T13:28:02;5.53;;;1.47;;
25980;SDS011;13772;52.996;9.124;2023-06-26T13:30:27;5.70;;;1.80;;
25980;SDS011;13772;52.996;9.124;2023-06-26T13:32:52;8.60;;;1.73;;
25980;SDS011;13772;52.996;9.124;2023-06-26T13:35:17;6.50;;;1.67;;
25980;SDS011;13772;52.996;9.124;2023-06-26T13:37:43;3.67;;;1.48;;
25980;SDS011;13772;52.996;9.124;2023-06-26T13:40:08;4.03;;;1.55;;
25980;SDS011;13772;52.996;9.124;2023-06-26T13:42:34;6.95;;;1.88;;
25980;SDS011;13772;52.996;9.124;2023-06-26T13:45:00;4.72;;;1.70;;
25980;SDS011;13772;52.996;9.124;2023-06-26T13:47:25;4.28;;;1.92;;
25980;SDS011;13772;52.996;9.124;2023-06-26T13:49:50;8.52;;;1.98;;
25980;SDS011;13772;52.996;9.124;2023-06-26T13:52:15;4.07;;;1.50;;
25980;SDS011;13772;52.996;9.124;2023-06-26T13:54:41;5.27;;;1.73;;
25980;SDS011;13772;52.996;9.124;2023-06-26T13:57:07;5.30;;;1.70;;
25980;SDS011;13772;52.996;9.124;2023-06-26T13:59:32;4.85;;;1.85;;
25980;SDS011;13772;52.996;9.124;2023-06-26T14:01:58;3.38;;;1.58;;
25980;SDS011;13772;52.996;9.124;2023-06-26T14:04:24;4.30;;;1.55;;
25980;SDS011;13772;52.996;9.124;2023-06-26T14:06:49;6.43;;;1.77;;
25980;SDS011;13772;52.996;9.124;2023-06-26T14:09:14;5.35;;;1.67;;
25980;SDS011;13772;52.996;9.124;2023-06-26T14:11:40;3.80;;;1.50;;
25980;SDS011;13772;52.996;9.124;2023-06-26T14:14:05;4.57;;;1.77;;
25980;SDS011;13772;52.996;9.124;2023-06-26T14:16:30;6.13;;;2.13;;
25980;SDS011;13772;52.996;9.124;2023-06-26T14:18:56;6.43;;;2.10;;
25980;SDS011;13772;52.996;9.124;2023-06-26T14:21:22;6.05;;;1.85;;
25980;SDS011;13772;52.996;9.124;2023-06-26T14:23:47;3.83;;;1.80;;
25980;SDS011;13772;52.996;9.124;2023-06-26T14:26:12;13.23;;;2.07;;
25980;SDS011;13772;52.996;9.124;2023-06-26T14:28:38;7.53;;;1.80;;
25980;SDS011;13772;52.996;9.124;2023-06-26T14:31:03;3.85;;;1.73;;
25980;SDS011;13772;52.996;9.124;2023-06-26T14:33:28;4.70;;;1.63;;
25980;SDS011;13772;52.996;9.124;2023-06-26T14:35:53;5.50;;;2.00;;
25980;SDS011;13772;52.996;9.124;2023-06-26T14:38:19;3.80;;;1.70;;
25980;SDS011;13772;52.996;9.124;2023-06-26T14:40:44;3.87;;;1.90;;
25980;SDS011;13772;52.996;9.124;2023-06-26T14:43:09;5.35;;;2.00;;
25980;SDS011;13772;52.996;9.124;2023-06-26T14:45:35;4.88;;;1.77;;
25980;SDS011;13772;52.996;9.124;2023-06-26T14:48:00;4.93;;;1.40;;
25980;SDS011;13772;52.996;9.124;2023-06-26T14:50:25;3.05;;;1.40;;
25980;SDS011;13772;52.996;9.124;2023-06-26T14:52:50;4.67;;;1.53;;
25980;SDS011;13772;52.996;9.124;2023-06-26T14:55:15;3.00;;;1.42;;
25980;SDS011;13772;52.996;9.124;2023-06-26T14:57:41;7.50;;;1.65;;
25980;SDS011;13772;52.996;9.124;2023-06-26T15:00:06;4.15;;;1.70;;
25980;SDS011;13772;52.996;9.124;2023-06-26T15:02:32;5.03;;;1.88;;
25980;SDS011;13772;52.996;9.124;2023-06-26T15:04:57;5.53;;;1.60;;
25980;SDS011;13772;52.996;9.124;2023-06-26T15:07:22;10.20;;;2.17;;
25980;SDS011;13772;52.996;9.124;2023-06-26T15:09:47;5.90;;;1.50;;
25980;SDS011;13772;52.996;9.124;2023-06-26T15:12:13;4.32;;;1.67;;
25980;SDS011;13772;52.996;9.124;2023-06-26T15:14:38;6.57;;;1.73;;
25980;SDS011;13772;52.996;9.124;2023-06-26T15:17:04;6.07;;;1.80;;
25980;SDS011;13772;52.996;9.124;2023-06-26T15:19:29;3.83;;;1.65;;
25980;SDS011;13772;52.996;9.124;2023-06-26T15:21:54;8.37;;;1.90;;
25980;SDS011;13772;52.996;9.124;2023-06-26T15:24:20;5.38;;;1.45;;
25980;SDS011;13772;52.996;9.124;2023-06-26T15:26:45;5.00;;;2.10;;
25980;SDS011;13772;52.996;9.124;2023-06-26T15:29:10;6.90;;;1.97;;
25980;SDS011;13772;52.996;9.124;2023-06-26T15:31:35;4.55;;;1.60;;
25980;SDS011;13772;52.996;9.124;2023-06-26T15:34:02;5.45;;;1.65;;
25980;SDS011;13772;52.996;9.124;2023-06-26T15:36:27;5.57;;;1.50;;
25980;SDS011;13772;52.996;9.124;2023-06-26T15:38:52;3.65;;;1.42;;
25980;SDS011;13772;52.996;9.124;2023-06-26T15:41:17;5.13;;;1.73;;
25980;SDS011;13772;52.996;9.124;2023-06-26T15:43:42;4.72;;;1.40;;
25980;SDS011;13772;52.996;9.124;2023-06-26T15:46:08;4.65;;;1.58;;
25980;SDS011;13772;52.996;9.124;2023-06-26T15:48:33;6.80;;;1.83;;
25980;SDS011;13772;52.996;9.124;2023-06-26T15:50:59;4.80;;;1.38;;
25980;SDS011;13772;52.996;9.124;2023-06-26T15:53:33;6.40;;;1.67;;
25980;SDS011;13772;52.996;9.124;2023-06-26T15:55:58;4.60;;;1.30;;
25980;SDS011;13772;52.996;9.124;2023-06-26T15:58:23;5.83;;;1.43;;
25980;SDS011;13772;52.996;9.124;2023-06-26T16:00:49;5.07;;;1.33;;
25980;SDS011;13772;52.996;9.124;2023-06-26T16:03:14;6.15;;;1.70;;
25980;SDS011;13772;52.996;9.124;2023-06-26T16:05:39;12.13;;;1.60;;
25980;SDS011;13772;52.996;9.124;2023-06-26T16:08:04;8.93;;;1.67;;
25980;SDS011;13772;52.996;9.124;2023-06-26T16:10:29;6.38;;;1.95;;
25980;SDS011;13772;52.996;9.124;2023-06-26T16:12:55;10.57;;;2.00;;
25980;SDS011;13772;52.996;9.124;2023-06-26T16:15:20;6.50;;;1.65;;
25980;SDS011;13772;52.996;9.124;2023-06-26T16:17:45;4.83;;;1.50;;
25980;SDS011;13772;52.996;9.124;2023-06-26T16:20:11;5.60;;;1.38;;
25980;SDS011;13772;52.996;9.124;2023-06-26T16:22:36;7.80;;;1.73;;
25980;SDS011;13772;52.996;9.124;2023-06-26T16:25:01;3.78;;;1.25;;
25980;SDS011;13772;52.996;9.124;2023-06-26T16:27:26;5.17;;;1.73;;
25980;SDS011;13772;52.996;9.124;2023-06-26T16:29:51;5.87;;;1.50;;
25980;SDS011;13772;52.996;9.124;2023-06-26T16:32:17;6.75;;;1.40;;
25980;SDS011;13772;52.996;9.124;2023-06-26T16:34:42;5.68;;;1.42;;
25980;SDS011;13772;52.996;9.124;2023-06-26T16:37:07;5.53;;;1.40;;
25980;SDS011;13772;52.996;9.124;2023-06-26T16:39:34;4.53;;;1.30;;
25980;SDS011;13772;52.996;9.124;2023-06-26T16:41:59;5.00;;;1.30;;
25980;SDS011;13772;52.996;9.124;2023-06-26T16:44:25;5.75;;;1.30;;
25980;SDS011;13772;52.996;9.124;2023-06-26T16:46:57;4.70;;;1.30;;
25980;SDS011;13772;52.996;9.124;2023-06-26T16:49:23;7.88;;;1.65;;
25980;SDS011;13772;52.996;9.124;2023-06-26T16:51:49;3.67;;;1.30;;
25980;SDS011;13772;52.996;9.124;2023-06-26T16:54:14;7.43;;;1.52;;
25980;SDS011;13772;52.996;9.124;2023-06-26T16:56:39;4.47;;;1.33;;
25980;SDS011;13772;52.996;9.124;2023-06-26T16:59:04;6.17;;;1.40;;
25980;SDS011;13772;52.996;9.124;2023-06-26T17:01:29;3.65;;;1.42;;
25980;SDS011;13772;52.996;9.124;2023-06-26T17:03:55;3.92;;;1.10;;
25980;SDS011;13772;52.996;9.124;2023-06-26T17:06:20;3.75;;;0.90;;
25980;SDS011;13772;52.996;9.124;2023-06-26T17:08:45;4.55;;;1.27;;
25980;SDS011;13772;52.996;9.124;2023-06-26T17:11:10;3.93;;;0.90;;
25980;SDS011;13772;52.996;9.124;2023-06-26T17:13:36;5.50;;;1.30;;
25980;SDS011;13772;52.996;9.124;2023-06-26T17:16:01;6.30;;;1.30;;
25980;SDS011;13772;52.996;9.124;2023-06-26T17:18:26;8.10;;;1.40;;
25980;SDS011;13772;52.996;9.124;2023-06-26T17:20:51;6.30;;;1.57;;
25980;SDS011;13772;52.996;9.124;2023-06-26T17:23:17;6.43;;;1.30;;
25980;SDS011;13772;52.996;9.124;2023-06-26T17:25:42;4.88;;;1.33;;
25980;SDS011;13772;52.996;9.124;2023-06-26T17:28:07;7.05;;;1.73;;
25980;SDS011;13772;52.996;9.124;2023-06-26T17:30:33;7.18;;;1.92;;
25980;SDS011;13772;52.996;9.124;2023-06-26T17:32:58;4.47;;;1.73;;
25980;SDS011;13772;52.996;9.124;2023-06-26T17:35:24;3.95;;;1.10;;
25980;SDS011;13772;52.996;9.124;2023-06-26T17:37:49;4.45;;;1.25;;
25980;SDS011;13772;52.996;9.124;2023-06-26T17:40:14;4.15;;;1.40;;
25980;SDS011;13772;52.996;9.124;2023-06-26T17:42:41;6.70;;;1.17;;
25980;SDS011;13772;52.996;9.124;2023-06-26T17:45:09;7.07;;;1.60;;
25980;SDS011;13772;52.996;9.124;2023-06-26T17:47:35;6.88;;;1.30;;
25980;SDS011;13772;52.996;9.124;2023-06-26T17:50:02;5.20;;;1.67;;
25980;SDS011;13772;52.996;9.124;2023-06-26T17:52:27;5.63;;;1.35;;
25980;SDS011;13772;52.996;9.124;2023-06-26T17:54:52;4.72;;;1.52;;
25980;SDS011;13772;52.996;9.124;2023-06-26T17:57:18;4.50;;;1.30;;
25980;SDS011;13772;52.996;9.124;2023-06-26T17:59:43;7.60;;;1.60;;
25980;SDS011;13772;52.996;9.124;2023-06-26T18:02:08;3.53;;;1.30;;
25980;SDS011;13772;52.996;9.124;2023-06-26T18:04:35;5.72;;;1.20;;
25980;SDS011;13772;52.996;9.124;2023-06-26T18:07:00;7.00;;;1.85;;
25980;SDS011;13772;52.996;9.124;2023-06-26T18:09:26;7.10;;;1.80;;
25980;SDS011;13772;52.996;9.124;2023-06-26T18:11:51;8.23;;;2.17;;
25980;SDS011;13772;52.996;9.124;2023-06-26T18:14:16;5.40;;;1.58;;
25980;SDS011;13772;52.996;9.124;2023-06-26T18:16:41;4.22;;;1.10;;
25980;SDS011;13772;52.996;9.124;2023-06-26T18:19:06;6.18;;;1.25;;
25980;SDS011;13772;52.996;9.124;2023-06-26T18:21:32;8.02;;;1.40;;
25980;SDS011;13772;52.996;9.124;2023-06-26T18:23:57;4.50;;;1.42;;
25980;SDS011;13772;52.996;9.124;2023-06-26T18:26:22;5.75;;;1.50;;
25980;SDS011;13772;52.996;9.124;2023-06-26T18:28:48;12.73;;;1.75;;
25980;SDS011;13772;52.996;9.124;2023-06-26T18:31:15;4.30;;;1.17;;
25980;SDS011;13772;52.996;9.124;2023-06-26T18:33:40;4.30;;;1.33;;
25980;SDS011;13772;52.996;9.124;2023-06-26T18:36:05;5.30;;;1.25;;
25980;SDS011;13772;52.996;9.124;2023-06-26T18:38:33;7.72;;;1.63;;
25980;SDS011;13772;52.996;9.124;2023-06-26T18:40:58;5.03;;;1.55;;
25980;SDS011;13772;52.996;9.124;2023-06-26T18:43:24;6.88;;;1.73;;
25980;SDS011;13772;52.996;9.124;2023-06-26T18:45:50;6.68;;;1.50;;
25980;SDS011;13772;52.996;9.124;2023-06-26T18:48:15;8.60;;;1.58;;
25980;SDS011;13772;52.996;9.124;2023-06-26T18:50:40;6.13;;;1.60;;
25980;SDS011;13772;52.996;9.124;2023-06-26T18:53:06;6.95;;;1.60;;
25980;SDS011;13772;52.996;9.124;2023-06-26T18:55:31;8.80;;;1.40;;
25980;SDS011;13772;52.996;9.124;2023-06-26T18:57:58;4.65;;;1.70;;
25980;SDS011;13772;52.996;9.124;2023-06-26T19:00:24;8.13;;;2.17;;
25980;SDS011;13772;52.996;9.124;2023-06-26T19:02:49;7.25;;;1.65;;
25980;SDS011;13772;52.996;9.124;2023-06-26T19:05:14;8.20;;;2.10;;
25980;SDS011;13772;52.996;9.124;2023-06-26T19:07:40;5.50;;;1.45;;
25980;SDS011;13772;52.996;9.124;2023-06-26T19:10:05;7.93;;;2.13;;
25980;SDS011;13772;52.996;9.124;2023-06-26T19:12:30;8.90;;;1.85;;
25980;SDS011;13772;52.996;9.124;2023-06-26T19:14:56;7.15;;;1.83;;
25980;SDS011;13772;52.996;9.124;2023-06-26T19:17:21;9.20;;;2.13;;
25980;SDS011;13772;52.996;9.124;2023-06-26T19:19:46;11.10;;;1.83;;
25980;SDS011;13772;52.996;9.124;2023-06-26T19:22:12;8.93;;;2.17;;
25980;SDS011;13772;52.996;9.124;2023-06-26T19:24:37;6.40;;;2.22;;
25980;SDS011;13772;52.996;9.124;2023-06-26T19:27:02;6.78;;;1.73;;
25980;SDS011;13772;52.996;9.124;2023-06-26T19:29:27;5.35;;;1.73;;
25980;SDS011;13772;52.996;9.124;2023-06-26T19:31:53;11.65;;;2.58;;
25980;SDS011;13772;52.996;9.124;2023-06-26T19:34:18;9.52;;;1.80;;
25980;SDS011;13772;52.996;9.124;2023-06-26T19:36:43;8.52;;;2.20;;
25980;SDS011;13772;52.996;9.124;2023-06-26T19:39:09;9.30;;;2.33;;
25980;SDS011;13772;52.996;9.124;2023-06-26T19:41:34;7.43;;;1.65;;
25980;SDS011;13772;52.996;9.124;2023-06-26T19:43:59;8.57;;;2.05;;
25980;SDS011;13772;52.996;9.124;2023-06-26T19:46:25;6.25;;;1.80;;
25980;SDS011;13772;52.996;9.124;2023-06-26T19:48:50;8.70;;;2.00;;
25980;SDS011;13772;52.996;9.124;2023-06-26T19:51:16;6.72;;;2.20;;
25980;SDS011;13772;52.996;9.124;2023-06-26T19:53:41;6.43;;;1.70;;
25980;SDS011;13772;52.996;9.124;2023-06-26T19:56:06;6.45;;;1.85;;
25980;SDS011;13772;52.996;9.124;2023-06-26T19:58:32;9.52;;;1.83;;
25980;SDS011;13772;52.996;9.124;2023-06-26T20:00:57;8.02;;;1.92;;
25980;SDS011;13772;52.996;9.124;2023-06-26T20:03:22;7.85;;;1.95;;
25980;SDS011;13772;52.996;9.124;2023-06-26T20:05:47;7.68;;;1.70;;
25980;SDS011;13772;52.996;9.124;2023-06-26T20:08:13;8.65;;;1.98;;
25980;SDS011;13772;52.996;9.124;2023-06-26T20:10:38;9.25;;;2.00;;
25980;SDS011;13772;52.996;9.124;2023-06-26T20:13:03;7.45;;;2.50;;
25980;SDS011;13772;52.996;9.124;2023-06-26T20:15:28;7.03;;;2.00;;
25980;SDS011;13772;52.996;9.124;2023-06-26T20:17:53;6.82;;;2.15;;
25980;SDS011;13772;52.996;9.124;2023-06-26T20:20:19;8.27;;;2.08;;
25980;SDS011;13772;52.996;9.124;2023-06-26T20:22:44;7.90;;;2.10;;
25980;SDS011;13772;52.996;9.124;2023-06-26T20:25:09;9.55;;;1.88;;
25980;SDS011;13772;52.996;9.124;2023-06-26T20:27:34;7.18;;;1.83;;
25980;SDS011;13772;52.996;9.124;2023-06-26T20:30:00;12.10;;;2.40;;
25980;SDS011;13772;52.996;9.124;2023-06-26T20:32:26;13.32;;;2.80;;
25980;SDS011;13772;52.996;9.124;2023-06-26T20:34:51;11.13;;;2.40;;
25980;SDS011;13772;52.996;9.124;2023-06-26T20:37:17;9.43;;;2.25;;
25980;SDS011;13772;52.996;9.124;2023-06-26T20:39:42;10.68;;;1.92;;
25980;SDS011;13772;52.996;9.124;2023-06-26T20:42:07;12.07;;;2.35;;
25980;SDS011;13772;52.996;9.124;2023-06-26T20:44:33;15.77;;;2.28;;
25980;SDS011;13772;52.996;9.124;2023-06-26T20:46:59;8.13;;;2.00;;
25980;SDS011;13772;52.996;9.124;2023-06-26T20:49:34;9.32;;;2.00;;
25980;SDS011;13772;52.996;9.124;2023-06-26T20:52:00;6.85;;;1.90;;
25980;SDS011;13772;52.996;9.124;2023-06-26T20:54:26;9.63;;;2.35;;